Calgary (YYC/CYYC)

Information

Location
Calgary, AB, Canada
Local Time
05:35 / 5:35 am
GMT Time
11:35 / 11:35 am
Gates
No FAA reported delays
METAR CYYC 241100Z 30015KT 240V310 15SM SCT110 BKN150 15/00 A2922 RMK AC3AC2 SLP878 DENSITY ALT 5200FT
TAF TAF CYYC 240838Z 2409/2506 26015G25KT P6SM FEW120 SCT220 FM241200 29012G22KT P6SM SCT080 FM241400 30015G25KT P6SM -SHRA SCT030 BKN080 TEMPO 2414/2418 5SM -SHRA BR BKN020 OVC050 FM241800 31025G40KT P6SM -RA SCT040 BKN080 TEMPO 2418/2422 4SM -RA BR BKN020 O